sensor_id;sensor_type;location;lat;lon;timestamp;P1;durP1;ratioP1;P2;durP2;ratioP2
20623;SDS011;10471;42.736;23.346;2024-01-15T00:00:13;234.73;;;94.00;;
20623;SDS011;10471;42.736;23.346;2024-01-15T00:02:39;197.93;;;86.57;;
20623;SDS011;10471;42.736;23.346;2024-01-15T00:05:04;208.60;;;82.57;;
20623;SDS011;10471;42.736;23.346;2024-01-15T00:07:30;213.67;;;91.20;;
20623;SDS011;10471;42.736;23.346;2024-01-15T00:09:55;187.63;;;80.77;;
20623;SDS011;10471;42.736;23.346;2024-01-15T00:12:21;202.00;;;85.57;;
20623;SDS011;10471;42.736;23.346;2024-01-15T00:14:46;213.67;;;85.70;;
20623;SDS011;10471;42.736;23.346;2024-01-15T00:17:11;211.33;;;83.47;;
20623;SDS011;10471;42.736;23.346;2024-01-15T00:19:37;204.27;;;86.20;;
20623;SDS011;10471;42.736;23.346;2024-01-15T00:22:03;226.90;;;92.60;;
20623;SDS011;10471;42.736;23.346;2024-01-15T00:24:28;211.23;;;89.20;;
20623;SDS011;10471;42.736;23.346;2024-01-15T00:26:54;202.73;;;85.97;;
20623;SDS011;10471;42.736;23.346;2024-01-15T00:29:20;196.43;;;81.23;;
20623;SDS011;10471;42.736;23.346;2024-01-15T00:31:46;258.10;;;105.70;;
20623;SDS011;10471;42.736;23.346;2024-01-15T00:34:11;239.40;;;98.23;;
20623;SDS011;10471;42.736;23.346;2024-01-15T00:36:37;247.17;;;100.07;;
20623;SDS011;10471;42.736;23.346;2024-01-15T00:39:02;241.13;;;94.57;;
20623;SDS011;10471;42.736;23.346;2024-01-15T00:41:30;225.57;;;90.63;;
20623;SDS011;10471;42.736;23.346;2024-01-15T00:43:56;209.17;;;88.37;;
20623;SDS011;10471;42.736;23.346;2024-01-15T00:46:21;243.73;;;99.97;;
20623;SDS011;10471;42.736;23.346;2024-01-15T00:48:47;228.80;;;95.70;;
20623;SDS011;10471;42.736;23.346;2024-01-15T00:51:12;258.57;;;107.97;;
20623;SDS011;10471;42.736;23.346;2024-01-15T00:53:38;256.57;;;105.07;;
20623;SDS011;10471;42.736;23.346;2024-01-15T00:56:03;221.63;;;93.60;;
20623;SDS011;10471;42.736;23.346;2024-01-15T00:58:29;214.00;;;89.80;;
20623;SDS011;10471;42.736;23.346;2024-01-15T01:00:54;188.20;;;81.57;;
20623;SDS011;10471;42.736;23.346;2024-01-15T01:03:20;184.77;;;80.73;;
20623;SDS011;10471;42.736;23.346;2024-01-15T01:05:48;205.23;;;85.03;;
20623;SDS011;10471;42.736;23.346;2024-01-15T01:08:14;203.80;;;93.90;;
20623;SDS011;10471;42.736;23.346;2024-01-15T01:10:40;212.43;;;88.47;;
20623;SDS011;10471;42.736;23.346;2024-01-15T01:13:07;219.07;;;89.83;;
20623;SDS011;10471;42.736;23.346;2024-01-15T01:15:33;221.57;;;92.87;;
20623;SDS011;10471;42.736;23.346;2024-01-15T01:17:59;218.30;;;90.57;;
20623;SDS011;10471;42.736;23.346;2024-01-15T01:20:24;199.93;;;86.97;;
20623;SDS011;10471;42.736;23.346;2024-01-15T01:22:49;199.87;;;85.33;;
20623;SDS011;10471;42.736;23.346;2024-01-15T01:25:15;191.77;;;82.13;;
20623;SDS011;10471;42.736;23.346;2024-01-15T01:27:40;185.73;;;79.10;;
20623;SDS011;10471;42.736;23.346;2024-01-15T01:30:06;185.97;;;78.53;;
20623;SDS011;10471;42.736;23.346;2024-01-15T01:32:32;192.30;;;80.37;;
20623;SDS011;10471;42.736;23.346;2024-01-15T01:34:57;180.27;;;81.17;;
20623;SDS011;10471;42.736;23.346;2024-01-15T01:37:23;185.17;;;78.37;;
20623;SDS011;10471;42.736;23.346;2024-01-15T01:39:48;169.93;;;71.03;;
20623;SDS011;10471;42.736;23.346;2024-01-15T01:42:14;174.10;;;78.37;;
20623;SDS011;10471;42.736;23.346;2024-01-15T01:44:40;187.17;;;81.50;;
20623;SDS011;10471;42.736;23.346;2024-01-15T01:47:05;191.33;;;78.27;;
20623;SDS011;10471;42.736;23.346;2024-01-15T01:49:31;191.70;;;78.57;;
20623;SDS011;10471;42.736;23.346;2024-01-15T01:51:57;239.70;;;92.47;;
20623;SDS011;10471;42.736;23.346;2024-01-15T01:54:29;210.83;;;86.00;;
20623;SDS011;10471;42.736;23.346;2024-01-15T01:56:56;211.87;;;87.13;;
20623;SDS011;10471;42.736;23.346;2024-01-15T01:59:23;219.53;;;92.17;;
20623;SDS011;10471;42.736;23.346;2024-01-15T02:01:50;229.00;;;90.90;;
20623;SDS011;10471;42.736;23.346;2024-01-15T02:04:16;220.33;;;91.37;;
20623;SDS011;10471;42.736;23.346;2024-01-15T02:06:42;221.73;;;89.87;;
20623;SDS011;10471;42.736;23.346;2024-01-15T02:09:07;236.80;;;92.37;;
20623;SDS011;10471;42.736;23.346;2024-01-15T02:11:34;235.80;;;94.67;;
20623;SDS011;10471;42.736;23.346;2024-01-15T02:14:00;218.17;;;91.00;;
20623;SDS011;10471;42.736;23.346;2024-01-15T02:16:26;197.03;;;82.70;;
20623;SDS011;10471;42.736;23.346;2024-01-15T02:18:51;206.50;;;82.53;;
20623;SDS011;10471;42.736;23.346;2024-01-15T02:21:17;207.23;;;85.97;;
20623;SDS011;10471;42.736;23.346;2024-01-15T02:23:42;208.60;;;87.53;;
20623;SDS011;10471;42.736;23.346;2024-01-15T02:26:07;195.87;;;84.53;;
20623;SDS011;10471;42.736;23.346;2024-01-15T02:28:33;201.67;;;82.17;;
20623;SDS011;10471;42.736;23.346;2024-01-15T02:30:59;201.40;;;82.40;;
20623;SDS011;10471;42.736;23.346;2024-01-15T02:33:25;201.90;;;82.03;;
20623;SDS011;10471;42.736;23.346;2024-01-15T02:35:50;179.60;;;71.67;;
20623;SDS011;10471;42.736;23.346;2024-01-15T02:38:16;156.33;;;62.03;;
20623;SDS011;10471;42.736;23.346;2024-01-15T02:40:42;148.27;;;60.40;;
20623;SDS011;10471;42.736;23.346;2024-01-15T02:43:08;155.00;;;57.43;;
20623;SDS011;10471;42.736;23.346;2024-01-15T02:45:34;140.30;;;56.70;;
20623;SDS011;10471;42.736;23.346;2024-01-15T02:47:59;124.73;;;53.17;;
20623;SDS011;10471;42.736;23.346;2024-01-15T02:50:25;143.97;;;55.90;;
20623;SDS011;10471;42.736;23.346;2024-01-15T02:52:50;141.40;;;55.30;;
20623;SDS011;10471;42.736;23.346;2024-01-15T02:55:16;144.30;;;56.50;;
20623;SDS011;10471;42.736;23.346;2024-01-15T02:57:41;104.57;;;45.90;;
20623;SDS011;10471;42.736;23.346;2024-01-15T03:00:07;139.70;;;54.87;;
20623;SDS011;10471;42.736;23.346;2024-01-15T03:02:35;122.90;;;50.67;;
20623;SDS011;10471;42.736;23.346;2024-01-15T03:05:02;120.03;;;50.03;;
20623;SDS011;10471;42.736;23.346;2024-01-15T03:07:28;126.53;;;52.33;;
20623;SDS011;10471;42.736;23.346;2024-01-15T03:09:53;132.63;;;55.57;;
20623;SDS011;10471;42.736;23.346;2024-01-15T03:12:19;137.43;;;56.27;;
20623;SDS011;10471;42.736;23.346;2024-01-15T03:14:44;134.60;;;55.07;;
20623;SDS011;10471;42.736;23.346;2024-01-15T03:17:09;140.27;;;56.50;;
20623;SDS011;10471;42.736;23.346;2024-01-15T03:19:36;140.10;;;58.13;;
20623;SDS011;10471;42.736;23.346;2024-01-15T03:22:01;139.40;;;59.07;;
20623;SDS011;10471;42.736;23.346;2024-01-15T03:24:28;130.07;;;55.43;;
20623;SDS011;10471;42.736;23.346;2024-01-15T03:26:54;148.70;;;60.57;;
20623;SDS011;10471;42.736;23.346;2024-01-15T03:29:19;143.77;;;59.93;;
20623;SDS011;10471;42.736;23.346;2024-01-15T03:31:45;142.23;;;60.57;;
20623;SDS011;10471;42.736;23.346;2024-01-15T03:34:10;138.10;;;57.00;;
20623;SDS011;10471;42.736;23.346;2024-01-15T03:36:36;134.63;;;55.40;;
20623;SDS011;10471;42.736;23.346;2024-01-15T03:39:01;127.93;;;52.53;;
20623;SDS011;10471;42.736;23.346;2024-01-15T03:41:27;121.00;;;51.37;;
20623;SDS011;10471;42.736;23.346;2024-01-15T03:43:52;125.57;;;49.30;;
20623;SDS011;10471;42.736;23.346;2024-01-15T03:46:17;126.00;;;50.53;;
20623;SDS011;10471;42.736;23.346;2024-01-15T03:48:43;129.53;;;51.10;;
20623;SDS011;10471;42.736;23.346;2024-01-15T03:51:08;133.63;;;52.90;;
20623;SDS011;10471;42.736;23.346;2024-01-15T03:53:34;125.43;;;49.27;;
20623;SDS011;10471;42.736;23.346;2024-01-15T03:55:59;115.37;;;48.17;;
20623;SDS011;10471;42.736;23.346;2024-01-15T03:58:24;117.87;;;49.17;;
20623;SDS011;10471;42.736;23.346;2024-01-15T04:00:50;111.93;;;45.43;;
20623;SDS011;10471;42.736;23.346;2024-01-15T04:03:15;113.73;;;47.53;;
20623;SDS011;10471;42.736;23.346;2024-01-15T04:05:41;132.67;;;56.27;;
20623;SDS011;10471;42.736;23.346;2024-01-15T04:08:06;120.50;;;51.63;;
20623;SDS011;10471;42.736;23.346;2024-01-15T04:10:32;120.13;;;50.13;;
20623;SDS011;10471;42.736;23.346;2024-01-15T04:12:57;126.40;;;50.20;;
20623;SDS011;10471;42.736;23.346;2024-01-15T04:15:24;119.17;;;48.40;;
20623;SDS011;10471;42.736;23.346;2024-01-15T04:17:50;109.63;;;45.50;;
20623;SDS011;10471;42.736;23.346;2024-01-15T04:20:16;109.10;;;48.00;;
20623;SDS011;10471;42.736;23.346;2024-01-15T04:22:43;121.87;;;48.33;;
20623;SDS011;10471;42.736;23.346;2024-01-15T04:25:08;131.93;;;57.53;;
20623;SDS011;10471;42.736;23.346;2024-01-15T04:27:34;130.13;;;57.83;;
20623;SDS011;10471;42.736;23.346;2024-01-15T04:29:59;144.93;;;59.67;;
20623;SDS011;10471;42.736;23.346;2024-01-15T04:32:25;151.17;;;59.23;;
20623;SDS011;10471;42.736;23.346;2024-01-15T04:34:50;133.20;;;54.17;;
20623;SDS011;10471;42.736;23.346;2024-01-15T04:37:16;121.30;;;53.90;;
20623;SDS011;10471;42.736;23.346;2024-01-15T04:39:41;132.37;;;56.30;;
20623;SDS011;10471;42.736;23.346;2024-01-15T04:42:06;132.87;;;58.87;;
20623;SDS011;10471;42.736;23.346;2024-01-15T04:44:32;128.37;;;55.60;;
20623;SDS011;10471;42.736;23.346;2024-01-15T04:46:57;124.13;;;56.07;;
20623;SDS011;10471;42.736;23.346;2024-01-15T04:49:22;131.40;;;57.27;;
20623;SDS011;10471;42.736;23.346;2024-01-15T04:51:51;125.03;;;54.73;;
20623;SDS011;10471;42.736;23.346;2024-01-15T04:54:16;133.20;;;59.77;;
20623;SDS011;10471;42.736;23.346;2024-01-15T04:56:43;132.30;;;59.17;;
20623;SDS011;10471;42.736;23.346;2024-01-15T04:59:09;126.67;;;55.53;;
20623;SDS011;10471;42.736;23.346;2024-01-15T05:01:35;138.70;;;61.23;;
20623;SDS011;10471;42.736;23.346;2024-01-15T05:04:00;127.93;;;57.33;;
20623;SDS011;10471;42.736;23.346;2024-01-15T05:06:25;121.53;;;53.83;;
20623;SDS011;10471;42.736;23.346;2024-01-15T05:08:51;118.00;;;53.50;;
20623;SDS011;10471;42.736;23.346;2024-01-15T05:11:16;118.10;;;53.70;;
20623;SDS011;10471;42.736;23.346;2024-01-15T05:13:42;236.20;;;104.80;;
20623;SDS011;10471;42.736;23.346;2024-01-15T05:16:07;153.60;;;69.10;;
20623;SDS011;10471;42.736;23.346;2024-01-15T05:18:33;138.60;;;60.67;;
20623;SDS011;10471;42.736;23.346;2024-01-15T05:20:58;124.57;;;53.93;;
20623;SDS011;10471;42.736;23.346;2024-01-15T05:23:24;128.43;;;49.67;;
20623;SDS011;10471;42.736;23.346;2024-01-15T05:25:49;128.07;;;55.17;;
20623;SDS011;10471;42.736;23.346;2024-01-15T05:28:15;130.77;;;53.30;;
20623;SDS011;10471;42.736;23.346;2024-01-15T05:30:40;136.03;;;53.93;;
20623;SDS011;10471;42.736;23.346;2024-01-15T05:33:06;144.67;;;56.40;;
20623;SDS011;10471;42.736;23.346;2024-01-15T05:35:32;133.60;;;56.07;;
20623;SDS011;10471;42.736;23.346;2024-01-15T05:37:58;140.47;;;54.70;;
20623;SDS011;10471;42.736;23.346;2024-01-15T05:40:24;158.17;;;64.77;;
20623;SDS011;10471;42.736;23.346;2024-01-15T05:42:49;162.23;;;67.27;;
20623;SDS011;10471;42.736;23.346;2024-01-15T05:45:15;138.13;;;61.77;;
20623;SDS011;10471;42.736;23.346;2024-01-15T05:47:40;154.87;;;65.73;;
20623;SDS011;10471;42.736;23.346;2024-01-15T05:50:06;152.93;;;65.03;;
20623;SDS011;10471;42.736;23.346;2024-01-15T05:52:32;146.03;;;67.07;;
20623;SDS011;10471;42.736;23.346;2024-01-15T05:54:57;146.30;;;64.70;;
20623;SDS011;10471;42.736;23.346;2024-01-15T05:57:23;148.90;;;62.97;;
20623;SDS011;10471;42.736;23.346;2024-01-15T05:59:48;201.83;;;85.80;;
20623;SDS011;10471;42.736;23.346;2024-01-15T06:02:14;205.10;;;94.03;;
20623;SDS011;10471;42.736;23.346;2024-01-15T06:04:40;181.47;;;83.57;;
20623;SDS011;10471;42.736;23.346;2024-01-15T06:07:05;162.33;;;74.10;;
20623;SDS011;10471;42.736;23.346;2024-01-15T06:09:30;163.47;;;72.90;;
20623;SDS011;10471;42.736;23.346;2024-01-15T06:11:56;136.93;;;62.67;;
20623;SDS011;10471;42.736;23.346;2024-01-15T06:14:22;155.20;;;67.17;;
20623;SDS011;10471;42.736;23.346;2024-01-15T06:16:47;157.67;;;63.83;;
20623;SDS011;10471;42.736;23.346;2024-01-15T06:19:12;148.27;;;64.50;;
20623;SDS011;10471;42.736;23.346;2024-01-15T06:21:38;134.53;;;58.03;;
20623;SDS011;10471;42.736;23.346;2024-01-15T06:24:03;149.13;;;63.87;;
20623;SDS011;10471;42.736;23.346;2024-01-15T06:26:29;142.57;;;62.80;;
20623;SDS011;10471;42.736;23.346;2024-01-15T06:28:54;138.67;;;58.90;;
20623;SDS011;10471;42.736;23.346;2024-01-15T06:31:20;145.07;;;65.93;;
20623;SDS011;10471;42.736;23.346;2024-01-15T06:33:46;174.27;;;76.13;;
20623;SDS011;10471;42.736;23.346;2024-01-15T06:36:13;163.40;;;71.33;;
20623;SDS011;10471;42.736;23.346;2024-01-15T06:38:39;158.27;;;73.60;;
20623;SDS011;10471;42.736;23.346;2024-01-15T06:41:04;167.83;;;73.20;;
20623;SDS011;10471;42.736;23.346;2024-01-15T06:43:30;154.43;;;71.37;;
20623;SDS011;10471;42.736;23.346;2024-01-15T06:45:55;163.03;;;71.13;;
20623;SDS011;10471;42.736;23.346;2024-01-15T06:48:21;166.93;;;79.90;;
20623;SDS011;10471;42.736;23.346;2024-01-15T06:50:46;164.20;;;77.17;;
20623;SDS011;10471;42.736;23.346;2024-01-15T06:53:12;188.30;;;80.63;;
20623;SDS011;10471;42.736;23.346;2024-01-15T06:55:38;224.60;;;94.87;;
20623;SDS011;10471;42.736;23.346;2024-01-15T06:58:04;174.27;;;77.03;;
20623;SDS011;10471;42.736;23.346;2024-01-15T07:00:29;176.43;;;71.07;;
20623;SDS011;10471;42.736;23.346;2024-01-15T07:02:55;154.13;;;67.20;;
20623;SDS011;10471;42.736;23.346;2024-01-15T07:05:20;151.97;;;65.17;;
20623;SDS011;10471;42.736;23.346;2024-01-15T07:07:46;155.47;;;70.50;;
20623;SDS011;10471;42.736;23.346;2024-01-15T07:10:12;157.87;;;68.67;;
20623;SDS011;10471;42.736;23.346;2024-01-15T07:12:38;153.33;;;69.27;;
20623;SDS011;10471;42.736;23.346;2024-01-15T07:15:04;140.90;;;62.27;;
20623;SDS011;10471;42.736;23.346;2024-01-15T07:17:32;145.63;;;59.87;;
20623;SDS011;10471;42.736;23.346;2024-01-15T07:19:57;135.17;;;61.17;;
20623;SDS011;10471;42.736;23.346;2024-01-15T07:22:22;157.23;;;69.27;;
20623;SDS011;10471;42.736;23.346;2024-01-15T07:24:48;139.37;;;65.13;;
20623;SDS011;10471;42.736;23.346;2024-01-15T07:27:13;160.23;;;71.40;;
20623;SDS011;10471;42.736;23.346;2024-01-15T07:29:39;176.97;;;80.83;;
20623;SDS011;10471;42.736;23.346;2024-01-15T07:32:04;158.87;;;78.37;;
20623;SDS011;10471;42.736;23.346;2024-01-15T07:34:30;166.47;;;78.77;;
20623;SDS011;10471;42.736;23.346;2024-01-15T07:36:57;163.50;;;79.50;;
20623;SDS011;10471;42.736;23.346;2024-01-15T07:39:22;202.93;;;93.97;;
20623;SDS011;10471;42.736;23.346;2024-01-15T07:41:49;180.93;;;85.73;;
20623;SDS011;10471;42.736;23.346;2024-01-15T07:44:15;169.97;;;79.33;;
20623;SDS011;10471;42.736;23.346;2024-01-15T07:46:44;176.97;;;83.63;;
20623;SDS011;10471;42.736;23.346;2024-01-15T07:49:10;182.47;;;84.23;;
20623;SDS011;10471;42.736;23.346;2024-01-15T07:51:36;158.40;;;75.93;;
20623;SDS011;10471;42.736;23.346;2024-01-15T07:54:01;154.03;;;70.27;;
20623;SDS011;10471;42.736;23.346;2024-01-15T07:56:27;164.93;;;75.37;;
20623;SDS011;10471;42.736;23.346;2024-01-15T07:58:53;173.33;;;82.53;;
20623;SDS011;10471;42.736;23.346;2024-01-15T08:01:18;162.53;;;77.53;;
20623;SDS011;10471;42.736;23.346;2024-01-15T08:03:43;148.53;;;68.33;;
20623;SDS011;10471;42.736;23.346;2024-01-15T08:06:09;145.80;;;73.90;;
20623;SDS011;10471;42.736;23.346;2024-01-15T08:08:35;133.07;;;62.27;;
20623;SDS011;10471;42.736;23.346;2024-01-15T08:11:00;120.47;;;57.70;;
20623;SDS011;10471;42.736;23.346;2024-01-15T08:13:26;121.27;;;53.17;;
20623;SDS011;10471;42.736;23.346;2024-01-15T08:15:52;127.40;;;58.73;;
20623;SDS011;10471;42.736;23.346;2024-01-15T08:18:18;98.20;;;45.47;;
20623;SDS011;10471;42.736;23.346;2024-01-15T08:20:43;95.70;;;46.57;;
20623;SDS011;10471;42.736;23.346;2024-01-15T08:23:09;121.07;;;56.40;;
20623;SDS011;10471;42.736;23.346;2024-01-15T08:25:34;92.87;;;48.80;;
20623;SDS011;10471;42.736;23.346;2024-01-15T08:28:00;91.20;;;45.87;;
20623;SDS011;10471;42.736;23.346;2024-01-15T08:30:25;89.13;;;46.33;;
20623;SDS011;10471;42.736;23.346;2024-01-15T08:32:55;100.57;;;48.80;;
20623;SDS011;10471;42.736;23.346;2024-01-15T08:35:21;87.37;;;43.83;;
20623;SDS011;10471;42.736;23.346;2024-01-15T08:37:48;93.63;;;43.33;;
20623;SDS011;10471;42.736;23.346;2024-01-15T08:40:16;84.07;;;41.80;;
20623;SDS011;10471;42.736;23.346;2024-01-15T08:42:42;86.40;;;41.90;;
20623;SDS011;10471;42.736;23.346;2024-01-15T08:45:08;93.93;;;44.33;;
20623;SDS011;10471;42.736;23.346;2024-01-15T08:47:34;82.10;;;41.23;;
20623;SDS011;10471;42.736;23.346;2024-01-15T08:50:00;86.47;;;43.63;;
20623;SDS011;10471;42.736;23.346;2024-01-15T08:52:25;92.67;;;44.50;;
20623;SDS011;10471;42.736;23.346;2024-01-15T08:54:51;90.60;;;45.97;;
20623;SDS011;10471;42.736;23.346;2024-01-15T08:57:16;96.63;;;46.60;;
20623;SDS011;10471;42.736;23.346;2024-01-15T08:59:42;93.83;;;49.57;;
20623;SDS011;10471;42.736;23.346;2024-01-15T09:02:07;101.93;;;50.10;;
20623;SDS011;10471;42.736;23.346;2024-01-15T09:04:33;95.77;;;50.30;;
20623;SDS011;10471;42.736;23.346;2024-01-15T09:06:58;99.63;;;50.10;;
20623;SDS011;10471;42.736;23.346;2024-01-15T09:09:24;95.60;;;49.30;;
20623;SDS011;10471;42.736;23.346;2024-01-15T09:11:50;92.80;;;48.30;;
20623;SDS011;10471;42.736;23.346;2024-01-15T09:14:16;92.50;;;48.77;;
20623;SDS011;10471;42.736;23.346;2024-01-15T09:16:41;97.37;;;49.73;;
20623;SDS011;10471;42.736;23.346;2024-01-15T09:19:07;96.27;;;50.83;;
20623;SDS011;10471;42.736;23.346;2024-01-15T09:21:32;99.47;;;51.70;;
20623;SDS011;10471;42.736;23.346;2024-01-15T09:23:58;98.57;;;51.60;;
20623;SDS011;10471;42.736;23.346;2024-01-15T09:26:23;97.87;;;50.53;;
20623;SDS011;10471;42.736;23.346;2024-01-15T09:28:49;100.43;;;51.93;;
20623;SDS011;10471;42.736;23.346;2024-01-15T09:31:14;100.40;;;54.47;;
20623;SDS011;10471;42.736;23.346;2024-01-15T09:33:42;113.80;;;57.67;;
20623;SDS011;10471;42.736;23.346;2024-01-15T09:36:08;119.23;;;62.20;;
20623;SDS011;10471;42.736;23.346;2024-01-15T09:38:33;110.67;;;54.27;;
20623;SDS011;10471;42.736;23.346;2024-01-15T09:40:59;113.97;;;56.57;;
20623;SDS011;10471;42.736;23.346;2024-01-15T09:43:25;110.93;;;56.30;;
20623;SDS011;10471;42.736;23.346;2024-01-15T09:45:51;97.30;;;49.40;;
20623;SDS011;10471;42.736;23.346;2024-01-15T09:48:18;95.73;;;48.50;;
20623;SDS011;10471;42.736;23.346;2024-01-15T09:50:43;103.90;;;53.43;;
20623;SDS011;10471;42.736;23.346;2024-01-15T09:53:09;108.93;;;52.33;;
20623;SDS011;10471;42.736;23.346;2024-01-15T09:55:36;103.87;;;53.27;;
20623;SDS011;10471;42.736;23.346;2024-01-15T09:58:03;96.83;;;49.83;;
20623;SDS011;10471;42.736;23.346;2024-01-15T10:00:29;100.50;;;48.80;;
20623;SDS011;10471;42.736;23.346;2024-01-15T10:02:56;100.30;;;50.93;;
20623;SDS011;10471;42.736;23.346;2024-01-15T10:05:22;109.20;;;52.37;;
20623;SDS011;10471;42.736;23.346;2024-01-15T10:07:47;98.03;;;51.63;;
20623;SDS011;10471;42.736;23.346;2024-01-15T10:10:16;90.70;;;46.93;;
20623;SDS011;10471;42.736;23.346;2024-01-15T10:12:42;83.47;;;46.40;;
20623;SDS011;10471;42.736;23.346;2024-01-15T10:15:11;70.93;;;37.70;;
20623;SDS011;10471;42.736;23.346;2024-01-15T10:17:37;82.30;;;44.27;;
20623;SDS011;10471;42.736;23.346;2024-01-15T10:20:07;72.73;;;39.50;;
20623;SDS011;10471;42.736;23.346;2024-01-15T10:22:39;76.50;;;40.53;;
20623;SDS011;10471;42.736;23.346;2024-01-15T10:25:06;76.63;;;39.50;;
20623;SDS011;10471;42.736;23.346;2024-01-15T10:27:35;78.30;;;40.80;;
20623;SDS011;10471;42.736;23.346;2024-01-15T10:30:01;73.00;;;40.60;;
20623;SDS011;10471;42.736;23.346;2024-01-15T10:32:27;86.80;;;43.83;;
20623;SDS011;10471;42.736;23.346;2024-01-15T10:34:52;86.57;;;46.13;;
20623;SDS011;10471;42.736;23.346;2024-01-15T10:37:19;88.03;;;45.37;;
20623;SDS011;10471;42.736;23.346;2024-01-15T10:39:46;79.60;;;43.03;;
20623;SDS011;10471;42.736;23.346;2024-01-15T10:42:11;79.17;;;40.73;;
20623;SDS011;10471;42.736;23.346;2024-01-15T10:44:37;82.60;;;43.37;;
20623;SDS011;10471;42.736;23.346;2024-01-15T10:47:02;58.03;;;30.83;;
20623;SDS011;10471;42.736;23.346;2024-01-15T10:49:29;59.93;;;32.03;;
20623;SDS011;10471;42.736;23.346;2024-01-15T10:51:55;60.50;;;32.20;;
20623;SDS011;10471;42.736;23.346;2024-01-15T10:54:21;50.67;;;27.73;;
20623;SDS011;10471;42.736;23.346;2024-01-15T10:56:49;56.00;;;31.00;;
20623;SDS011;10471;42.736;23.346;2024-01-15T10:59:16;83.00;;;41.13;;
20623;SDS011;10471;42.736;23.346;2024-01-15T11:01:44;57.47;;;33.00;;
20623;SDS011;10471;42.736;23.346;2024-01-15T11:04:11;71.70;;;36.93;;
20623;SDS011;10471;42.736;23.346;2024-01-15T11:06:41;72.43;;;37.63;;
20623;SDS011;10471;42.736;23.346;2024-01-15T11:09:08;57.60;;;33.27;;
20623;SDS011;10471;42.736;23.346;2024-01-15T11:11:39;57.53;;;30.17;;
20623;SDS011;10471;42.736;23.346;2024-01-15T11:14:05;67.90;;;32.07;;
20623;SDS011;10471;42.736;23.346;2024-01-15T11:19:24;57.30;;;31.97;;
20623;SDS011;10471;42.736;23.346;2024-01-15T11:21:49;52.00;;;29.67;;
20623;SDS011;10471;42.736;23.346;2024-01-15T11:24:36;50.23;;;29.73;;
20623;SDS011;10471;42.736;23.346;2024-01-15T11:27:06;74.53;;;38.73;;
20623;SDS011;10471;42.736;23.346;2024-01-15T11:29:36;52.87;;;29.97;;
20623;SDS011;10471;42.736;23.346;2024-01-15T11:32:06;59.17;;;33.33;;
20623;SDS011;10471;42.736;23.346;2024-01-15T11:37:18;65.30;;;35.50;;
20623;SDS011;10471;42.736;23.346;2024-01-15T11:39:44;56.40;;;31.70;;
20623;SDS011;10471;42.736;23.346;2024-01-15T11:42:12;58.07;;;30.53;;
20623;SDS011;10471;42.736;23.346;2024-01-15T11:44:38;58.93;;;32.40;;
20623;SDS011;10471;42.736;23.346;2024-01-15T11:47:04;58.80;;;31.17;;
20623;SDS011;10471;42.736;23.346;2024-01-15T11:52:16;58.30;;;32.90;;
20623;SDS011;10471;42.736;23.346;2024-01-15T11:55:00;55.17;;;30.37;;
20623;SDS011;10471;42.736;23.346;2024-01-15T12:00:12;58.60;;;31.30;;
20623;SDS011;10471;42.736;23.346;2024-01-15T12:02:45;55.60;;;32.87;;
20623;SDS011;10471;42.736;23.346;2024-01-15T12:05:11;59.67;;;32.17;;
20623;SDS011;10471;42.736;23.346;2024-01-15T12:07:41;53.40;;;30.67;;
20623;SDS011;10471;42.736;23.346;2024-01-15T12:10:08;54.67;;;30.87;;
20623;SDS011;10471;42.736;23.346;2024-01-15T12:12:51;67.47;;;36.67;;
20623;SDS011;10471;42.736;23.346;2024-01-15T12:15:19;61.33;;;32.60;;
20623;SDS011;10471;42.736;23.346;2024-01-15T12:17:45;61.60;;;32.90;;
20623;SDS011;10471;42.736;23.346;2024-01-15T12:20:11;86.30;;;39.97;;
20623;SDS011;10471;42.736;23.346;2024-01-15T12:22:37;60.57;;;33.57;;
20623;SDS011;10471;42.736;23.346;2024-01-15T12:25:03;163.57;;;74.03;;
20623;SDS011;10471;42.736;23.346;2024-01-15T12:27:29;73.03;;;39.40;;
20623;SDS011;10471;42.736;23.346;2024-01-15T12:29:54;93.43;;;48.13;;
20623;SDS011;10471;42.736;23.346;2024-01-15T12:32:20;75.83;;;40.70;;
20623;SDS011;10471;42.736;23.346;2024-01-15T12:34:51;76.70;;;42.43;;
20623;SDS011;10471;42.736;23.346;2024-01-15T12:37:19;69.40;;;36.87;;
20623;SDS011;10471;42.736;23.346;2024-01-15T12:39:45;70.43;;;38.63;;
20623;SDS011;10471;42.736;23.346;2024-01-15T12:42:11;97.30;;;54.30;;
20623;SDS011;10471;42.736;23.346;2024-01-15T12:44:37;98.43;;;53.53;;
20623;SDS011;10471;42.736;23.346;2024-01-15T12:47:21;95.50;;;52.67;;
20623;SDS011;10471;42.736;23.346;2024-01-15T12:49:46;102.43;;;55.57;;
20623;SDS011;10471;42.736;23.346;2024-01-15T12:52:15;96.77;;;53.27;;
20623;SDS011;10471;42.736;23.346;2024-01-15T12:54:41;116.37;;;64.80;;
20623;SDS011;10471;42.736;23.346;2024-01-15T12:57:06;122.70;;;67.37;;
20623;SDS011;10471;42.736;23.346;2024-01-15T12:59:31;113.50;;;61.63;;
20623;SDS011;10471;42.736;23.346;2024-01-15T13:01:57;117.93;;;60.80;;
20623;SDS011;10471;42.736;23.346;2024-01-15T13:04:23;131.23;;;67.20;;
20623;SDS011;10471;42.736;23.346;2024-01-15T13:06:49;197.20;;;91.73;;
20623;SDS011;10471;42.736;23.346;2024-01-15T13:09:15;161.33;;;81.33;;
20623;SDS011;10471;42.736;23.346;2024-01-15T13:11:42;148.23;;;75.20;;
20623;SDS011;10471;42.736;23.346;2024-01-15T13:14:08;144.43;;;76.00;;
20623;SDS011;10471;42.736;23.346;2024-01-15T13:16:33;196.57;;;95.93;;
20623;SDS011;10471;42.736;23.346;2024-01-15T13:18:58;198.60;;;94.37;;
20623;SDS011;10471;42.736;23.346;2024-01-15T13:21:24;178.50;;;89.70;;
20623;SDS011;10471;42.736;23.346;2024-01-15T13:23:50;175.10;;;88.87;;
20623;SDS011;10471;42.736;23.346;2024-01-15T13:26:15;216.60;;;110.10;;
20623;SDS011;10471;42.736;23.346;2024-01-15T13:28:43;229.23;;;118.57;;
20623;SDS011;10471;42.736;23.346;2024-01-15T13:31:08;215.03;;;111.03;;
20623;SDS011;10471;42.736;23.346;2024-01-15T13:33:34;194.60;;;103.60;;
20623;SDS011;10471;42.736;23.346;2024-01-15T13:35:59;146.70;;;73.83;;
20623;SDS011;10471;42.736;23.346;2024-01-15T13:38:25;172.60;;;86.03;;
20623;SDS011;10471;42.736;23.346;2024-01-15T13:40:51;223.47;;;108.73;;
20623;SDS011;10471;42.736;23.346;2024-01-15T13:43:17;199.77;;;105.50;;
20623;SDS011;10471;42.736;23.346;2024-01-15T13:45:43;172.13;;;83.37;;
20623;SDS011;10471;42.736;23.346;2024-01-15T13:48:08;168.00;;;84.00;;
20623;SDS011;10471;42.736;23.346;2024-01-15T13:50:34;166.80;;;83.83;;
20623;SDS011;10471;42.736;23.346;2024-01-15T13:53:00;161.27;;;81.00;;
20623;SDS011;10471;42.736;23.346;2024-01-15T13:55:27;143.60;;;76.73;;
20623;SDS011;10471;42.736;23.346;2024-01-15T13:57:54;154.07;;;79.33;;
20623;SDS011;10471;42.736;23.346;2024-01-15T14:00:19;154.73;;;83.20;;
20623;SDS011;10471;42.736;23.346;2024-01-15T14:02:45;158.23;;;78.67;;